Jose Bonifacio, Brazil
Current Conditions -  °F | °C
As of 5:00 PM on Friday 21 Nov 2014 (Local Time) from SBSR Reporting Station
Few Clouds Few Clouds  
Wind Chill: 88°   Ceiling: Unl
Heat Index: 88°   Visibility: 6mi
Dew Point: 61°   Wind: 8mph
Humidity: 40%   Direction: 250°WSW
Pressure: 29.91"   Gusts: NA
Location:  21.05°S, 49.69°W
Report Text: SBSR 211900Z 25007KT 9999 FEW045 31/16 Q1013
Loading
Personal Weather Stations






























Interactive Weather Map New forecast layout! Learn more

10-Day Weather Forecast

Advertisements
Track Severe Weather on mobile